Time;durP1;ratioP1;P1;durP2;ratioP2;P2;SDS_P1;SDS_P2;PMS_P1;PMS_P2;Temp;Humidity;BMP_temperature;BMP_pressure;BME280_temperature;BME280_humidity;BME280_pressure;Samples;Min_cycle;Max_cycle;Signal;HPM_P1;HPM_P2
2020/12/11 00:00:21;;;;;;;12.40;6.27;;;1.60;99.90;;;;;;4964415;28;20204;-78
2020/12/11 00:02:47;;;;;;;7.23;5.03;;;1.50;99.90;;;;;;4964007;28;20235;-79
2020/12/11 00:05:13;;;;;;;12.03;6.07;;;1.50;99.90;;;;;;4964548;28;20277;-81
2020/12/11 00:07:40;;;;;;;11.60;6.70;;;1.50;99.90;;;;;;4964064;28;20173;-81
2020/12/11 00:10:06;;;;;;;11.33;6.93;;;1.50;99.90;;;;;;4965340;28;20224;-82
2020/12/11 00:12:33;;;;;;;11.10;6.93;;;1.50;99.90;;;;;;4966280;28;20286;-80
2020/12/11 00:14:59;;;;;;;14.43;7.57;;;1.60;99.90;;;;;;4965426;28;20258;-80
2020/12/11 00:17:26;;;;;;;11.87;6.97;;;1.60;99.90;;;;;;4981409;28;20201;-81
2020/12/11 00:19:55;;;;;;;13.27;7.63;;;1.60;99.90;;;;;;4964932;28;20296;-80
2020/12/11 00:22:22;;;;;;;11.47;6.53;;;1.60;99.90;;;;;;4965497;28;20326;-80
2020/12/11 00:24:48;;;;;;;12.07;8.23;;;1.50;99.90;;;;;;4964867;28;20254;-81
2020/12/11 00:27:14;;;;;;;11.70;6.83;;;1.50;99.90;;;;;;4966704;28;20208;-82
2020/12/11 00:29:40;;;;;;;9.27;6.73;;;1.50;99.90;;;;;;4965396;28;20217;-80
2020/12/11 00:32:06;;;;;;;9.50;7.83;;;1.50;99.90;;;;;;4964897;28;20201;-80
2020/12/11 00:34:32;;;;;;;11.37;6.23;;;1.50;99.90;;;;;;4965397;28;20266;-80
2020/12/11 00:36:58;;;;;;;9.33;5.83;;;1.50;99.90;;;;;;4965439;28;20279;-81
2020/12/11 00:39:24;;;;;;;11.03;6.07;;;1.50;99.90;;;;;;4966756;28;20287;-82
2020/12/11 00:41:49;;;;;;;8.40;5.67;;;1.50;99.90;;;;;;4965891;28;20549;-80
2020/12/11 00:44:15;;;;;;;10.97;6.47;;;1.50;99.90;;;;;;4965879;28;20203;-80
2020/12/11 00:46:41;;;;;;;6.87;5.23;;;1.50;99.90;;;;;;4966385;28;20207;-81
2020/12/11 00:49:07;;;;;;;11.30;7.43;;;1.50;99.90;;;;;;4964777;28;20224;-80
2020/12/11 00:51:32;;;;;;;8.27;5.30;;;1.50;99.90;;;;;;4966522;28;20196;-81
2020/12/11 00:53:58;;;;;;;10.70;5.47;;;1.50;99.90;;;;;;4966308;28;20223;-80
2020/12/11 00:56:23;;;;;;;12.80;7.60;;;1.50;99.90;;;;;;4964981;28;20213;-80
2020/12/11 00:58:50;;;;;;;11.67;6.43;;;1.50;99.90;;;;;;4964850;28;20193;-80
2020/12/11 01:01:16;;;;;;;10.43;6.10;;;1.50;99.90;;;;;;4963808;28;20267;-80
2020/12/11 01:03:42;;;;;;;8.37;5.23;;;1.60;99.90;;;;;;4965845;28;20217;-80
2020/12/11 01:06:07;;;;;;;11.43;6.10;;;1.60;99.90;;;;;;4966152;28;20205;-80
2020/12/11 01:08:33;;;;;;;10.07;6.57;;;1.60;99.90;;;;;;4965983;28;20219;-80
2020/12/11 01:10:59;;;;;;;15.97;10.33;;;1.60;99.90;;;;;;4965499;28;20283;-80
2020/12/11 01:13:25;;;;;;;9.63;6.67;;;1.60;99.90;;;;;;4964008;28;20254;-80
2020/12/11 01:15:50;;;;;;;10.70;6.33;;;1.60;99.90;;;;;;4962930;28;20196;-80
2020/12/11 01:18:16;;;;;;;13.63;7.33;;;1.60;99.90;;;;;;4963037;28;20193;-81
2020/12/11 01:20:42;;;;;;;10.13;6.53;;;1.50;99.90;;;;;;4962107;28;20216;-80
2020/12/11 01:23:07;;;;;;;8.63;5.43;;;1.60;99.90;;;;;;4964838;28;20277;-80
2020/12/11 01:25:33;;;;;;;10.37;5.93;;;1.60;99.90;;;;;;4963666;28;20622;-80
2020/12/11 01:27:58;;;;;;;12.53;6.63;;;1.60;99.90;;;;;;4963877;28;20608;-81
2020/12/11 01:30:24;;;;;;;8.53;4.83;;;1.60;99.90;;;;;;4964522;28;20788;-80
2020/12/11 01:32:49;;;;;;;11.63;6.63;;;1.60;99.90;;;;;;4964270;28;20221;-81
2020/12/11 01:35:15;;;;;;;7.43;5.13;;;1.60;99.90;;;;;;4964629;28;20720;-81
2020/12/11 01:37:40;;;;;;;7.77;5.43;;;1.60;99.90;;;;;;4964631;28;20200;-81
2020/12/11 01:40:06;;;;;;;9.03;5.33;;;1.60;99.90;;;;;;4964385;28;20566;-80
2020/12/11 01:42:32;;;;;;;10.73;5.30;;;1.60;99.90;;;;;;4966078;28;20208;-80
2020/12/11 01:44:58;;;;;;;11.53;7.00;;;1.60;99.90;;;;;;4964896;28;20189;-82
2020/12/11 01:47:24;;;;;;;11.40;6.90;;;1.60;99.90;;;;;;4963546;28;20225;-81
2020/12/11 01:49:52;;;;;;;12.20;6.47;;;1.60;99.90;;;;;;4964682;28;20263;-81
2020/12/11 01:52:18;;;;;;;9.00;6.40;;;1.60;99.90;;;;;;4964235;28;20192;-80
2020/12/11 01:54:45;;;;;;;8.00;4.87;;;1.60;99.90;;;;;;4963772;28;20200;-80
2020/12/11 01:57:26;;;;;;;10.10;5.40;;;1.60;99.90;;;;;;4965222;28;20735;-82
2020/12/11 01:59:54;;;;;;;14.53;5.60;;;1.60;99.90;;;;;;4965991;28;20292;-78
2020/12/11 02:02:26;;;;;;;10.23;6.00;;;1.60;99.90;;;;;;4965778;28;20663;-79
2020/12/11 02:04:52;;;;;;;9.23;4.83;;;1.60;99.90;;;;;;4964362;28;20189;-78
2020/12/11 02:07:18;;;;;;;9.63;6.60;;;1.60;99.90;;;;;;4964019;28;20254;-80
2020/12/11 02:09:44;;;;;;;12.03;7.23;;;1.50;99.90;;;;;;4963101;28;20702;-80
2020/12/11 02:12:09;;;;;;;10.63;5.87;;;1.50;99.90;;;;;;4963874;28;20224;-80
2020/12/11 02:14:35;;;;;;;8.63;5.50;;;1.50;99.90;;;;;;4964986;28;20189;-79
2020/12/11 02:17:03;;;;;;;8.17;6.27;;;1.60;99.90;;;;;;4963744;28;20297;-80
2020/12/11 02:19:34;;;;;;;7.53;5.40;;;1.50;99.90;;;;;;4963840;28;20227;-81
2020/12/11 02:22:05;;;;;;;6.97;5.57;;;1.50;99.90;;;;;;4963931;28;20209;-80
2020/12/11 02:24:31;;;;;;;5.97;5.10;;;1.50;99.90;;;;;;4964122;28;20189;-80
2020/12/11 02:26:58;;;;;;;10.33;5.50;;;1.50;99.90;;;;;;4963306;28;20200;-79
2020/12/11 02:29:25;;;;;;;11.07;6.67;;;1.50;99.90;;;;;;4963464;28;20213;-80
2020/12/11 02:31:51;;;;;;;10.83;5.57;;;1.50;99.90;;;;;;4963892;28;20192;-81
2020/12/11 02:34:17;;;;;;;10.17;6.03;;;1.50;99.90;;;;;;4964442;28;20203;-80
2020/12/11 02:36:43;;;;;;;11.57;6.30;;;1.50;99.90;;;;;;4963421;28;20193;-81
2020/12/11 02:39:08;;;;;;;13.70;6.23;;;1.50;99.90;;;;;;4963668;28;20217;-80
2020/12/11 02:41:34;;;;;;;7.93;5.90;;;1.50;99.90;;;;;;4962808;28;20581;-80
2020/12/11 02:44:01;;;;;;;13.93;6.83;;;1.40;99.90;;;;;;4962658;28;20203;-80
2020/12/11 02:46:27;;;;;;;8.40;5.10;;;1.40;99.90;;;;;;4964584;28;20198;-80
2020/12/11 02:48:53;;;;;;;9.00;7.03;;;1.40;99.90;;;;;;4963167;28;20184;-79
2020/12/11 02:51:18;;;;;;;8.70;5.87;;;1.40;99.90;;;;;;4964046;28;20553;-80
2020/12/11 02:53:44;;;;;;;11.07;7.27;;;1.40;99.90;;;;;;4964738;28;20185;-81
2020/12/11 02:56:10;;;;;;;7.97;5.20;;;1.40;99.90;;;;;;4962412;28;20925;-79
2020/12/11 02:58:35;;;;;;;6.47;4.83;;;1.30;99.90;;;;;;4964261;28;20223;-81
2020/12/11 03:01:01;;;;;;;8.60;5.60;;;1.30;99.90;;;;;;4966934;28;20201;-80
2020/12/11 03:03:26;;;;;;;11.67;6.13;;;1.20;99.90;;;;;;4966000;28;20677;-80
2020/12/11 03:05:52;;;;;;;13.40;6.77;;;1.20;99.90;;;;;;4965615;28;20620;-81
2020/12/11 03:08:17;;;;;;;11.83;6.23;;;1.20;99.90;;;;;;4966628;28;21014;-81
2020/12/11 03:10:43;;;;;;;8.87;5.40;;;1.30;99.90;;;;;;4981263;28;20258;-80
2020/12/11 03:13:08;;;;;;;8.27;4.67;;;1.30;99.90;;;;;;4966748;28;20673;-79
2020/12/11 03:15:34;;;;;;;9.93;5.23;;;1.20;99.90;;;;;;4967435;28;20193;-81
2020/12/11 03:17:59;;;;;;;7.27;4.73;;;1.20;99.90;;;;;;4967682;28;20193;-79
2020/12/11 03:20:25;;;;;;;8.97;7.00;;;1.20;99.90;;;;;;4969266;28;20213;-79
2020/12/11 03:22:53;;;;;;;8.37;4.80;;;1.20;99.90;;;;;;4967447;28;20876;-81
2020/12/11 03:25:19;;;;;;;8.33;5.53;;;1.20;99.90;;;;;;4967698;28;20193;-81
2020/12/11 03:27:45;;;;;;;11.13;5.97;;;1.20;99.90;;;;;;4967150;28;20195;-80
2020/12/11 03:30:11;;;;;;;7.90;5.97;;;1.20;99.90;;;;;;4967560;28;20590;-82
2020/12/11 03:32:38;;;;;;;9.40;6.50;;;1.20;99.90;;;;;;4967717;28;20199;-80
2020/12/11 03:35:04;;;;;;;9.37;5.97;;;1.20;99.90;;;;;;4966701;28;20193;-82
2020/12/11 03:37:31;;;;;;;8.93;5.43;;;1.30;99.90;;;;;;4967710;28;20197;-81
2020/12/11 03:39:57;;;;;;;11.80;4.87;;;1.30;99.90;;;;;;4969248;28;20213;-80
2020/12/11 03:42:23;;;;;;;8.90;5.43;;;1.30;99.90;;;;;;4967418;28;20219;-81
2020/12/11 03:44:48;;;;;;;8.63;4.80;;;1.40;99.90;;;;;;4967341;28;20203;-81
2020/12/11 03:47:14;;;;;;;10.60;6.77;;;1.40;99.90;;;;;;4967203;28;20189;-81
2020/12/11 03:49:39;;;;;;;9.87;4.47;;;1.40;99.90;;;;;;4967394;28;20300;-83
2020/12/11 03:52:05;;;;;;;9.73;6.03;;;1.40;99.90;;;;;;4968487;28;20196;-81
2020/12/11 03:54:31;;;;;;;12.70;6.63;;;1.40;99.90;;;;;;4967349;28;20193;-82
2020/12/11 03:56:56;;;;;;;9.40;5.47;;;1.40;99.90;;;;;;4968513;28;20278;-82
2020/12/11 03:59:22;;;;;;;13.33;7.23;;;1.50;99.90;;;;;;4968684;28;20213;-80
2020/12/11 04:01:47;;;;;;;12.87;6.63;;;1.40;99.90;;;;;;4966581;28;20675;-79
2020/12/11 04:04:13;;;;;;;13.40;6.67;;;1.50;99.90;;;;;;4967147;28;20193;-79
2020/12/11 04:06:38;;;;;;;13.47;6.57;;;1.40;99.90;;;;;;4968458;28;20214;-81
2020/12/11 04:09:04;;;;;;;8.73;5.57;;;1.50;99.90;;;;;;4966939;28;20189;-80
2020/12/11 04:11:30;;;;;;;8.47;5.00;;;1.50;99.90;;;;;;4982197;28;20211;-80
2020/12/11 04:13:55;;;;;;;13.13;5.97;;;1.50;99.90;;;;;;4966867;28;20256;-79
2020/12/11 04:16:21;;;;;;;9.30;5.47;;;1.50;99.90;;;;;;4968382;28;20242;-80
2020/12/11 04:18:47;;;;;;;9.97;5.73;;;1.50;99.90;;;;;;4968843;28;20672;-80
2020/12/11 04:21:15;;;;;;;7.43;4.77;;;1.50;99.90;;;;;;4966639;28;20236;-80
2020/12/11 04:23:42;;;;;;;11.23;5.47;;;1.50;99.90;;;;;;4967931;28;20276;-80
2020/12/11 04:26:08;;;;;;;11.10;5.83;;;1.40;99.90;;;;;;4967874;28;20594;-78
2020/12/11 04:28:34;;;;;;;7.80;5.33;;;1.40;99.90;;;;;;4966568;28;20272;-80
2020/12/11 04:31:00;;;;;;;9.97;7.77;;;1.40;99.90;;;;;;4966156;28;20690;-81
2020/12/11 04:33:25;;;;;;;7.53;5.40;;;1.40;99.90;;;;;;4967006;28;20197;-81
2020/12/11 04:35:51;;;;;;;9.70;5.10;;;1.40;99.90;;;;;;4967543;28;20268;-78
2020/12/11 04:38:17;;;;;;;11.67;6.33;;;1.40;99.90;;;;;;4966440;28;20201;-80
2020/12/11 04:40:43;;;;;;;10.80;6.17;;;1.40;99.90;;;;;;4966086;28;20987;-81
2020/12/11 04:43:11;;;;;;;12.10;6.20;;;1.50;99.90;;;;;;4966660;28;20243;-81
2020/12/11 04:45:40;;;;;;;15.37;5.93;;;1.40;99.90;;;;;;4966720;28;20199;-79
2020/12/11 04:48:10;;;;;;;8.67;4.60;;;1.40;99.90;;;;;;4966771;28;20189;-80
2020/12/11 04:50:36;;;;;;;12.00;4.77;;;1.40;99.90;;;;;;4966354;28;20213;-80
2020/12/11 04:53:02;;;;;;;8.57;5.30;;;1.40;99.90;;;;;;4982868;28;20193;-82
2020/12/11 04:55:29;;;;;;;7.13;4.53;;;1.50;99.90;;;;;;4966739;28;20208;-79
2020/12/11 04:57:55;;;;;;;11.17;6.03;;;1.50;99.90;;;;;;4982301;28;20197;-81
2020/12/11 05:00:23;;;;;;;14.13;6.93;;;1.40;99.90;;;;;;4968185;28;20247;-79
2020/12/11 05:02:49;;;;;;;9.07;5.17;;;1.40;99.90;;;;;;4966523;28;20209;-80
2020/12/11 05:05:16;;;;;;;8.13;5.83;;;1.40;99.90;;;;;;4965412;28;20208;-80
2020/12/11 05:07:42;;;;;;;14.70;7.20;;;1.30;99.90;;;;;;4965583;28;20312;-80
2020/12/11 05:10:09;;;;;;;9.27;4.60;;;1.30;99.90;;;;;;4965854;28;20217;-82
2020/12/11 05:12:36;;;;;;;10.80;5.63;;;1.20;99.90;;;;;;4965330;28;20193;-81
2020/12/11 05:15:03;;;;;;;11.57;5.33;;;1.20;99.90;;;;;;4965178;28;20726;-79
2020/12/11 05:17:37;;;;;;;12.00;5.47;;;1.20;99.90;;;;;;4964986;28;20240;-80
2020/12/11 05:20:04;;;;;;;11.23;6.03;;;1.20;99.90;;;;;;4965361;28;20235;-80
2020/12/11 05:22:35;;;;;;;9.50;6.30;;;1.20;99.90;;;;;;4964133;28;20261;-80
2020/12/11 05:25:04;;;;;;;12.53;5.43;;;1.20;99.90;;;;;;4966956;28;20235;-81
2020/12/11 05:27:44;;;;;;;7.57;5.13;;;1.30;99.90;;;;;;4966706;28;20185;-81
2020/12/11 05:30:16;;;;;;;7.47;5.63;;;1.30;99.90;;;;;;4966263;28;20239;-79
2020/12/11 05:32:43;;;;;;;8.97;4.93;;;1.30;99.90;;;;;;4963957;28;20215;-78
2020/12/11 05:35:25;;;;;;;9.50;5.53;;;1.40;99.90;;;;;;4963715;28;20646;-79
2020/12/11 05:38:09;;;;;;;7.73;4.53;;;1.30;99.90;;;;;;4963263;28;20204;-79
2020/12/11 05:40:40;;;;;;;9.37;5.33;;;1.40;99.90;;;;;;4963251;28;20217;-79
2020/12/11 05:43:07;;;;;;;8.00;5.20;;;1.30;99.90;;;;;;4963589;28;20575;-78
2020/12/11 05:45:36;;;;;;;7.13;5.50;;;1.30;99.90;;;;;;4964745;28;20670;-80
2020/12/11 05:48:04;;;;;;;10.53;5.30;;;1.30;99.90;;;;;;4965026;28;20627;-79
2020/12/11 05:50:30;;;;;;;9.67;6.13;;;1.30;99.90;;;;;;4979521;28;20835;-78
2020/12/11 05:52:56;;;;;;;10.53;5.13;;;1.30;99.90;;;;;;4964211;28;20200;-80
2020/12/11 05:55:23;;;;;;;6.97;4.77;;;1.30;99.90;;;;;;4964111;28;20208;-79
2020/12/11 05:57:56;;;;;;;6.60;4.67;;;1.30;99.90;;;;;;4963780;28;20300;-78
2020/12/11 06:00:22;;;;;;;7.27;4.80;;;1.30;99.90;;;;;;4963118;28;20208;-79
2020/12/11 06:02:50;;;;;;;8.33;4.70;;;1.30;99.90;;;;;;4964949;28;20197;-79
2020/12/11 06:05:17;;;;;;;9.50;6.00;;;1.30;99.90;;;;;;4963275;28;20219;-79
2020/12/11 06:07:45;;;;;;;9.60;5.83;;;1.30;99.90;;;;;;4963555;28;20200;-78
2020/12/11 06:10:19;;;;;;;11.57;5.93;;;1.30;99.90;;;;;;4979196;28;20223;-79
2020/12/11 06:12:44;;;;;;;8.50;5.67;;;1.30;99.90;;;;;;4963191;28;20199;-79
2020/12/11 06:15:27;;;;;;;6.20;4.73;;;1.30;99.90;;;;;;4963447;28;20564;-78
2020/12/11 06:18:15;;;;;;;14.43;5.90;;;1.30;99.90;;;;;;4964616;28;20276;-80
2020/12/11 06:20:41;;;;;;;10.17;6.57;;;1.40;99.90;;;;;;4962876;28;20220;-79
2020/12/11 06:23:29;;;;;;;8.80;6.73;;;1.30;99.90;;;;;;4963087;28;21347;-80
2020/12/11 06:25:57;;;;;;;12.60;6.00;;;1.40;99.90;;;;;;4962683;28;20264;-79
2020/12/11 06:28:35;;;;;;;9.40;6.83;;;1.30;99.90;;;;;;4978838;28;20638;-80
2020/12/11 06:31:05;;;;;;;11.03;7.07;;;1.30;99.90;;;;;;4964029;28;20209;-79
2020/12/11 06:33:32;;;;;;;12.00;6.37;;;1.30;99.90;;;;;;4962474;28;20196;-79
2020/12/11 06:36:00;;;;;;;8.03;5.67;;;1.30;99.90;;;;;;4963406;28;20189;-79
2020/12/11 06:38:41;;;;;;;10.10;6.60;;;1.30;99.90;;;;;;4979096;28;20238;-80
2020/12/11 06:41:08;;;;;;;8.93;4.73;;;1.20;99.90;;;;;;4962065;28;20220;-80
2020/12/11 06:43:40;;;;;;;7.13;5.23;;;1.30;99.90;;;;;;4962649;28;20568;-81
2020/12/11 06:46:26;;;;;;;8.27;5.23;;;1.40;99.90;;;;;;4962236;28;20193;-79
2020/12/11 06:49:04;;;;;;;9.93;6.70;;;1.40;99.90;;;;;;4962239;28;20192;-81
2020/12/11 06:51:30;;;;;;;8.57;4.97;;;1.40;99.90;;;;;;4961981;28;20193;-80
2020/12/11 06:53:55;;;;;;;8.23;5.63;;;1.40;99.90;;;;;;4962148;28;20197;-79
2020/12/11 06:56:51;;;;;;;9.00;5.57;;;1.40;99.90;;;;;;4962285;28;20200;-80
2020/12/11 06:59:32;;;;;;;6.83;5.77;;;1.40;99.90;;;;;;4960403;28;20232;-79
2020/12/11 07:02:05;;;;;;;9.10;6.13;;;1.40;99.90;;;;;;4961994;28;20576;-81
2020/12/11 07:04:38;;;;;;;10.33;6.17;;;1.50;99.90;;;;;;4962438;28;20196;-81
2020/12/11 07:07:04;;;;;;;10.57;6.13;;;1.50;99.90;;;;;;4962884;28;20193;-79
2020/12/11 07:09:29;;;;;;;12.47;7.07;;;1.50;99.90;;;;;;4963621;28;20209;-81
2020/12/11 07:11:56;;;;;;;9.57;5.70;;;1.50;99.90;;;;;;4962217;28;20219;-80
2020/12/11 07:14:28;;;;;;;10.70;5.07;;;1.50;99.90;;;;;;4963500;28;20736;-81
2020/12/11 07:16:54;;;;;;;9.67;5.17;;;1.50;99.90;;;;;;4960614;28;20189;-79
2020/12/11 07:19:19;;;;;;;11.20;6.10;;;1.60;99.90;;;;;;4964829;28;20555;-80
2020/12/11 07:21:46;;;;;;;10.43;6.60;;;1.60;99.90;;;;;;4962615;28;20208;-79
2020/12/11 07:24:13;;;;;;;13.50;8.47;;;1.60;99.90;;;;;;4962933;28;20212;-80
2020/12/11 07:26:39;;;;;;;10.23;6.47;;;1.60;99.90;;;;;;4962810;28;20212;-79
2020/12/11 07:29:18;;;;;;;14.13;8.17;;;1.60;99.90;;;;;;4961497;28;20228;-80
2020/12/11 07:31:46;;;;;;;8.17;6.23;;;1.70;99.90;;;;;;4962099;28;20181;-79
2020/12/11 07:34:15;;;;;;;11.13;5.93;;;1.60;99.90;;;;;;4964339;28;20193;-79
2020/12/11 07:36:41;;;;;;;9.33;6.13;;;1.60;99.90;;;;;;4962899;28;20264;-80
2020/12/11 07:39:17;;;;;;;9.47;5.73;;;1.60;99.90;;;;;;4962601;28;20241;-81
2020/12/11 07:41:44;;;;;;;17.83;7.53;;;1.60;99.90;;;;;;4962504;28;20730;-79
2020/12/11 07:44:20;;;;;;;8.67;6.63;;;1.70;99.90;;;;;;4962340;28;20193;-81
2020/12/11 07:46:45;;;;;;;9.93;6.60;;;1.70;99.90;;;;;;4965379;28;20658;-80
2020/12/11 07:49:11;;;;;;;16.70;8.67;;;1.70;99.90;;;;;;4967397;28;20211;-78
2020/12/11 07:51:46;;;;;;;13.97;7.27;;;1.70;99.90;;;;;;4968213;28;20275;-81
2020/12/11 07:54:12;;;;;;;19.03;7.57;;;1.80;99.90;;;;;;4965338;28;20241;-78
2020/12/11 07:56:38;;;;;;;13.63;7.40;;;1.70;99.90;;;;;;4965825;28;20235;-79
2020/12/11 07:59:15;;;;;;;12.40;7.60;;;1.70;99.90;;;;;;4964722;28;20667;-81
2020/12/11 08:01:46;;;;;;;10.97;7.20;;;1.80;99.90;;;;;;4966022;28;20223;-81
2020/12/11 08:04:13;;;;;;;13.97;9.67;;;1.80;99.90;;;;;;4964933;28;20195;-79
2020/12/11 08:06:39;;;;;;;32.90;17.60;;;1.80;99.90;;;;;;4964769;28;20193;-79
2020/12/11 08:09:14;;;;;;;12.30;6.70;;;1.90;99.90;;;;;;4966441;28;20219;-82
2020/12/11 08:11:43;;;;;;;9.57;6.37;;;2.00;99.90;;;;;;4965028;28;20240;-79
2020/12/11 08:14:09;;;;;;;13.20;7.43;;;1.90;99.90;;;;;;4965577;28;20296;-80
2020/12/11 08:16:35;;;;;;;10.63;7.67;;;1.90;99.90;;;;;;4964285;28;20746;-79
2020/12/11 08:19:02;;;;;;;13.03;6.77;;;1.90;99.90;;;;;;4980340;28;20268;-79
2020/12/11 08:21:32;;;;;;;18.23;7.90;;;1.90;99.90;;;;;;4966037;28;20335;-80
2020/12/11 08:23:59;;;;;;;13.17;7.47;;;2.00;99.90;;;;;;4966275;28;20180;-81
2020/12/11 08:26:26;;;;;;;14.57;7.73;;;1.90;99.90;;;;;;4964470;28;20216;-81
2020/12/11 08:29:04;;;;;;;31.33;19.20;;;1.90;99.90;;;;;;4980595;28;20197;-80
2020/12/11 08:31:36;;;;;;;20.00;12.57;;;1.90;99.90;;;;;;4963743;28;20288;-77
2020/12/11 08:34:07;;;;;;;14.53;8.87;;;1.90;99.90;;;;;;4965993;28;20189;-80
2020/12/11 08:36:37;;;;;;;10.50;7.03;;;1.90;99.90;;;;;;4966169;28;20185;-79
2020/12/11 08:39:25;;;;;;;15.37;8.83;;;1.90;99.90;;;;;;4964544;28;20207;-82
2020/12/11 08:47:54;;;;;;;15.30;7.87;;;1.80;99.90;;;;;;4966145;28;20185;-80
2020/12/11 08:50:30;;;;;;;17.50;8.77;;;1.90;99.90;;;;;;4965709;28;20292;-80
2020/12/11 08:52:56;;;;;;;14.70;10.17;;;1.90;99.90;;;;;;4964101;28;20266;-82
2020/12/11 08:55:22;;;;;;;12.83;8.10;;;1.90;99.90;;;;;;4964787;28;20231;-78
2020/12/11 08:57:49;;;;;;;12.30;8.67;;;2.00;99.90;;;;;;4964573;28;20259;-79
2020/12/11 09:00:16;;;;;;;9.97;7.27;;;2.00;99.90;;;;;;4964852;28;20312;-80
2020/12/11 09:02:42;;;;;;;8.67;4.87;;;2.10;99.90;;;;;;4965284;28;20205;-79
2020/12/11 09:05:09;;;;;;;9.20;5.83;;;2.10;99.90;;;;;;4965435;28;20656;-80
2020/12/11 09:07:37;;;;;;;10.50;6.97;;;2.10;99.90;;;;;;4980796;28;20246;-82
2020/12/11 09:10:05;;;;;;;15.93;6.80;;;2.10;99.90;;;;;;4964086;28;20217;-80
2020/12/11 09:12:31;;;;;;;19.20;7.87;;;2.10;99.90;;;;;;4980635;28;20230;-81
2020/12/11 09:14:57;;;;;;;5.83;4.70;;;2.10;99.90;;;;;;4965308;28;20200;-80
2020/12/11 09:17:23;;;;;;;10.10;5.33;;;2.10;99.90;;;;;;4964230;28;20196;-80
2020/12/11 09:19:49;;;;;;;7.57;5.87;;;2.20;99.90;;;;;;4964265;28;20241;-79
2020/12/11 09:22:15;;;;;;;10.37;5.20;;;2.20;99.90;;;;;;4965668;28;20301;-78
2020/12/11 09:24:40;;;;;;;9.70;6.20;;;2.20;99.90;;;;;;4962843;28;20193;-74
2020/12/11 09:27:07;;;;;;;10.83;7.47;;;2.20;99.90;;;;;;4962843;28;20196;-78
2020/12/11 09:29:39;;;;;;;8.97;6.83;;;2.20;99.90;;;;;;4964054;28;20944;-81
2020/12/11 09:32:06;;;;;;;18.03;10.97;;;2.30;99.90;;;;;;4963578;28;20189;-80
2020/12/11 09:34:32;;;;;;;14.13;7.90;;;2.30;99.90;;;;;;4965377;28;20594;-81
2020/12/11 09:37:00;;;;;;;15.17;7.53;;;2.20;99.90;;;;;;4963637;28;20283;-75
2020/12/11 09:39:26;;;;;;;13.40;10.07;;;2.20;99.90;;;;;;4963335;28;20213;-75
2020/12/11 09:42:15;;;;;;;9.43;6.40;;;2.30;99.90;;;;;;4964439;28;20259;-76
2020/12/11 09:45:06;;;;;;;19.47;8.33;;;2.30;99.90;;;;;;4964354;28;20654;-76
2020/12/11 09:54:58;;;;;;;13.33;6.47;;;2.30;99.90;;;;;;4965135;28;20795;-79
2020/12/11 09:57:24;;;;;;;17.23;7.13;;;2.40;99.90;;;;;;4963918;28;20189;-81
2020/12/11 09:59:57;;;;;;;11.23;5.10;;;2.40;99.90;;;;;;4965376;28;20213;-81
2020/12/11 10:04:57;;;;;;;11.53;4.83;;;2.40;99.90;;;;;;4967205;28;20220;-81
2020/12/11 10:07:23;;;;;;;12.93;5.97;;;2.50;99.90;;;;;;4965141;28;20695;-79
2020/12/11 10:09:49;;;;;;;9.00;6.53;;;2.60;99.90;;;;;;4966325;28;20244;-79
2020/12/11 10:12:16;;;;;;;13.53;6.00;;;2.60;99.90;;;;;;4967297;28;20674;-80
2020/12/11 10:14:45;;;;;;;9.50;5.40;;;2.60;99.90;;;;;;4965544;28;20597;-79
2020/12/11 10:17:10;;;;;;;12.33;6.03;;;2.70;99.90;;;;;;4966950;28;20189;-79
2020/12/11 10:19:36;;;;;;;11.43;6.10;;;2.70;99.90;;;;;;4968226;28;20620;-81
2020/12/11 10:22:02;;;;;;;7.80;4.47;;;2.80;99.90;;;;;;4966439;28;20197;-83
2020/12/11 10:24:28;;;;;;;10.17;6.27;;;2.70;99.90;;;;;;4966127;28;20674;-82
2020/12/11 10:26:54;;;;;;;9.93;6.40;;;2.80;99.90;;;;;;4966290;28;20812;-83
2020/12/11 10:29:19;;;;;;;7.37;5.03;;;2.80;99.90;;;;;;4967809;28;20212;-81
2020/12/11 10:31:45;;;;;;;6.43;4.63;;;2.80;99.90;;;;;;4967411;28;20181;-82
2020/12/11 10:34:12;;;;;;;9.67;6.53;;;2.80;99.90;;;;;;4967247;28;20217;-81
2020/12/11 10:36:38;;;;;;;15.83;9.07;;;2.90;99.90;;;;;;4966226;28;20196;-81
2020/12/11 10:39:05;;;;;;;6.60;5.13;;;2.90;99.90;;;;;;4966175;28;20197;-82
2020/12/11 10:41:31;;;;;;;10.20;6.73;;;2.90;99.90;;;;;;4965702;28;20181;-75
2020/12/11 10:43:57;;;;;;;9.90;5.63;;;2.90;99.90;;;;;;4964187;28;20555;-77
2020/12/11 10:46:22;;;;;;;6.57;3.90;;;2.90;99.90;;;;;;4964908;28;20185;-80
2020/12/11 10:48:48;;;;;;;9.23;5.23;;;2.90;99.90;;;;;;4964258;28;20718;-81
2020/12/11 10:51:16;;;;;;;8.27;5.33;;;2.90;99.90;;;;;;4963885;28;20204;-80
2020/12/11 10:53:45;;;;;;;12.30;6.87;;;2.90;99.90;;;;;;4964325;28;20215;-81
2020/12/11 10:56:11;;;;;;;5.03;3.83;;;2.90;99.90;;;;;;4963236;28;20796;-82
2020/12/11 10:58:38;;;;;;;13.17;6.87;;;3.00;99.90;;;;;;4963208;28;20199;-81
2020/12/11 11:01:08;;;;;;;14.70;6.43;;;2.90;99.90;;;;;;4963534;28;20205;-81
2020/12/11 11:03:34;;;;;;;9.07;6.23;;;2.80;99.90;;;;;;4963341;28;20215;-82
2020/12/11 11:06:09;;;;;;;8.40;4.17;;;2.80;99.90;;;;;;4963173;28;20654;-81
2020/12/11 11:11:22;;;;;;;9.90;4.67;;;2.80;99.90;;;;;;4950686;28;20306;-81
2020/12/11 11:14:05;;;;;;;10.20;4.50;;;2.80;99.90;;;;;;4962036;28;20618;-81
2020/12/11 11:25:06;;;;;;;10.43;5.93;;;2.80;99.90;;;;;;4967560;28;20168;-81
2020/12/11 11:27:37;;;;;;;6.63;5.77;;;2.90;99.90;;;;;;4966563;28;20195;-80
2020/12/11 11:30:03;;;;;;;7.83;4.93;;;2.80;99.90;;;;;;4965526;28;20208;-81
2020/12/11 11:32:29;;;;;;;7.83;5.07;;;2.90;99.90;;;;;;4981703;28;20447;-80
2020/12/11 11:34:54;;;;;;;9.20;5.37;;;2.90;99.90;;;;;;4965791;28;20839;-80
2020/12/11 11:37:21;;;;;;;5.90;4.23;;;2.90;99.90;;;;;;4965318;28;20640;-81
2020/12/11 11:39:48;;;;;;;4.87;3.57;;;2.90;99.90;;;;;;4965430;28;20213;-81
2020/12/11 11:42:14;;;;;;;10.40;5.87;;;2.90;99.90;;;;;;4966279;28;20209;-80
2020/12/11 11:44:55;;;;;;;8.30;5.53;;;3.00;99.90;;;;;;4966422;28;20207;-81
2020/12/11 11:47:21;;;;;;;9.00;5.40;;;3.00;99.90;;;;;;4965427;28;20258;-80
2020/12/11 11:49:57;;;;;;;5.17;4.07;;;3.10;99.90;;;;;;4965275;28;20208;-81
2020/12/11 11:54:58;;;;;;;10.70;6.63;;;3.00;99.90;;;;;;4966752;28;20283;-81
2020/12/11 11:57:26;;;;;;;13.80;6.63;;;3.00;99.90;;;;;;4965135;28;20189;-81
2020/12/11 11:59:51;;;;;;;8.03;5.80;;;3.10;99.90;;;;;;4965782;28;20205;-81
2020/12/11 12:02:17;;;;;;;12.20;7.60;;;3.10;99.90;;;;;;4965059;28;20235;-81
2020/12/11 12:04:42;;;;;;;8.90;5.90;;;3.00;99.90;;;;;;4964569;28;20204;-81
2020/12/11 12:07:08;;;;;;;10.60;4.67;;;3.00;99.90;;;;;;4964461;28;20543;-81
2020/12/11 12:09:34;;;;;;;10.63;7.37;;;3.00;99.90;;;;;;4966125;28;20205;-81
2020/12/11 12:12:00;;;;;;;10.20;6.63;;;3.10;99.90;;;;;;4964709;28;20587;-81
2020/12/11 12:14:26;;;;;;;11.50;6.90;;;3.10;99.90;;;;;;4966704;28;20192;-81
2020/12/11 12:16:53;;;;;;;11.77;7.07;;;3.10;99.90;;;;;;4966028;28;20598;-81
2020/12/11 12:19:26;;;;;;;6.50;4.77;;;3.20;99.90;;;;;;4965948;28;20205;-81
2020/12/11 12:29:34;;;;;;;8.17;4.97;;;3.20;99.90;;;;;;4966289;28;20270;-81
2020/12/11 12:32:07;;;;;;;6.90;4.87;;;3.30;99.90;;;;;;4964384;28;20193;-81
2020/12/11 12:39:39;;;;;;;8.00;5.63;;;3.50;99.90;;;;;;4967121;28;20216;-81
2020/12/11 12:42:39;;;;;;;8.20;4.57;;;3.60;99.90;;;;;;4964828;28;20212;-80
2020/12/11 12:45:06;;;;;;;7.67;5.60;;;3.50;99.90;;;;;;4964894;28;20196;-81
2020/12/11 12:47:32;;;;;;;7.97;5.47;;;3.60;99.90;;;;;;4966156;28;20185;-80
2020/12/11 12:49:59;;;;;;;10.27;5.80;;;3.60;99.90;;;;;;4964923;28;20236;-80
2020/12/11 12:52:25;;;;;;;8.03;5.53;;;3.50;99.90;;;;;;4964758;28;20205;-80
2020/12/11 12:54:50;;;;;;;10.80;5.10;;;3.50;99.90;;;;;;4964725;28;20321;-80
2020/12/11 12:57:24;;;;;;;14.23;7.00;;;3.50;99.90;;;;;;4966002;28;20545;-80
2020/12/11 12:59:58;;;;;;;8.07;5.83;;;3.50;99.90;;;;;;4964742;28;20204;-80
2020/12/11 13:05:04;;;;;;;8.17;4.87;;;3.40;99.90;;;;;;4965967;28;20181;-80
2020/12/11 13:07:30;;;;;;;7.57;5.37;;;3.40;99.90;;;;;;4964486;28;20275;-81
2020/12/11 13:09:55;;;;;;;8.43;6.23;;;3.50;99.90;;;;;;4964657;28;20790;-80
2020/12/11 13:12:22;;;;;;;10.53;6.17;;;3.40;99.90;;;;;;4964327;28;20203;-80
2020/12/11 13:14:47;;;;;;;6.37;4.23;;;3.50;99.90;;;;;;4963183;28;20276;-80
2020/12/11 13:17:13;;;;;;;8.00;5.10;;;3.50;99.90;;;;;;4964951;28;20283;-80
2020/12/11 13:19:39;;;;;;;6.30;4.53;;;3.40;99.90;;;;;;4963711;28;20239;-81
2020/12/11 13:27:26;;;;;;;5.27;4.40;;;3.40;99.90;;;;;;4965720;28;20195;-80
2020/12/11 13:29:52;;;;;;;8.43;4.97;;;3.40;99.90;;;;;;4964525;28;20209;-80
2020/12/11 13:32:19;;;;;;;8.13;4.53;;;3.40;99.90;;;;;;4963887;28;20196;-80
2020/12/11 13:34:44;;;;;;;6.97;4.10;;;3.40;99.90;;;;;;4965313;28;20220;-80
2020/12/11 13:37:10;;;;;;;6.40;5.17;;;3.40;99.90;;;;;;4964315;28;20209;-80
2020/12/11 13:39:36;;;;;;;7.80;5.30;;;3.30;99.90;;;;;;4980042;28;20213;-80
2020/12/11 13:42:02;;;;;;;5.97;4.53;;;3.30;99.90;;;;;;4963666;28;20211;-83
2020/12/11 13:44:27;;;;;;;6.77;4.60;;;3.40;99.90;;;;;;4964696;28;20655;-80
2020/12/11 13:46:53;;;;;;;5.63;3.53;;;3.40;99.90;;;;;;4963183;28;20188;-80